sensor_id;sensor_type;location;lat;lon;timestamp;P1;durP1;ratioP1;P2;durP2;ratioP2
31782;SDS011;18351;47.560;9.708;2022-07-10T00:00:11;3.50;;;2.85;;
31782;SDS011;18351;47.560;9.708;2022-07-10T00:02:39;9.18;;;3.50;;
31782;SDS011;18351;47.560;9.708;2022-07-10T00:05:07;4.40;;;3.30;;
31782;SDS011;18351;47.560;9.708;2022-07-10T00:07:33;5.05;;;3.60;;
31782;SDS011;18351;47.560;9.708;2022-07-10T00:10:00;6.45;;;3.30;;
31782;SDS011;18351;47.560;9.708;2022-07-10T00:12:26;4.30;;;2.95;;
31782;SDS011;18351;47.560;9.708;2022-07-10T00:14:51;7.07;;;3.50;;
31782;SDS011;18351;47.560;9.708;2022-07-10T00:17:17;3.97;;;3.47;;
31782;SDS011;18351;47.560;9.708;2022-07-10T00:19:43;5.93;;;3.95;;
31782;SDS011;18351;47.560;9.708;2022-07-10T00:22:08;5.85;;;3.85;;
31782;SDS011;18351;47.560;9.708;2022-07-10T00:24:34;6.55;;;3.58;;
31782;SDS011;18351;47.560;9.708;2022-07-10T00:27:00;5.45;;;3.53;;
31782;SDS011;18351;47.560;9.708;2022-07-10T00:29:25;5.28;;;3.42;;
31782;SDS011;18351;47.560;9.708;2022-07-10T00:31:51;5.40;;;3.40;;
31782;SDS011;18351;47.560;9.708;2022-07-10T00:34:17;6.35;;;3.70;;
31782;SDS011;18351;47.560;9.708;2022-07-10T00:36:42;5.03;;;3.50;;
31782;SDS011;18351;47.560;9.708;2022-07-10T00:39:08;5.15;;;4.13;;
31782;SDS011;18351;47.560;9.708;2022-07-10T00:41:34;3.92;;;3.53;;
31782;SDS011;18351;47.560;9.708;2022-07-10T00:44:03;4.18;;;3.63;;
31782;SDS011;18351;47.560;9.708;2022-07-10T00:46:29;5.00;;;3.65;;
31782;SDS011;18351;47.560;9.708;2022-07-10T00:48:56;4.80;;;3.60;;
31782;SDS011;18351;47.560;9.708;2022-07-10T00:51:27;3.90;;;3.45;;
31782;SDS011;18351;47.560;9.708;2022-07-10T00:53:54;3.30;;;3.00;;
31782;SDS011;18351;47.560;9.708;2022-07-10T00:56:22;6.55;;;3.50;;
31782;SDS011;18351;47.560;9.708;2022-07-10T00:58:49;5.70;;;3.33;;
31782;SDS011;18351;47.560;9.708;2022-07-10T01:01:15;3.45;;;3.15;;
31782;SDS011;18351;47.560;9.708;2022-07-10T01:03:42;5.45;;;3.67;;
31782;SDS011;18351;47.560;9.708;2022-07-10T01:06:10;7.63;;;4.03;;
31782;SDS011;18351;47.560;9.708;2022-07-10T01:08:36;8.55;;;3.97;;
31782;SDS011;18351;47.560;9.708;2022-07-10T01:11:02;4.35;;;3.47;;
31782;SDS011;18351;47.560;9.708;2022-07-10T01:13:28;6.57;;;3.88;;
31782;SDS011;18351;47.560;9.708;2022-07-10T01:15:54;4.65;;;3.47;;
31782;SDS011;18351;47.560;9.708;2022-07-10T01:18:21;6.60;;;3.55;;
31782;SDS011;18351;47.560;9.708;2022-07-10T01:20:54;8.30;;;4.40;;
31782;SDS011;18351;47.560;9.708;2022-07-10T01:23:20;6.77;;;3.83;;
31782;SDS011;18351;47.560;9.708;2022-07-10T01:25:47;4.38;;;3.15;;
31782;SDS011;18351;47.560;9.708;2022-07-10T01:28:13;6.30;;;3.78;;
31782;SDS011;18351;47.560;9.708;2022-07-10T01:30:38;6.57;;;3.40;;
31782;SDS011;18351;47.560;9.708;2022-07-10T01:33:04;5.85;;;3.65;;
31782;SDS011;18351;47.560;9.708;2022-07-10T01:35:30;6.88;;;3.95;;
31782;SDS011;18351;47.560;9.708;2022-07-10T01:37:58;4.50;;;2.90;;
31782;SDS011;18351;47.560;9.708;2022-07-10T01:40:24;3.97;;;3.13;;
31782;SDS011;18351;47.560;9.708;2022-07-10T01:42:49;3.22;;;2.80;;
31782;SDS011;18351;47.560;9.708;2022-07-10T01:45:16;5.65;;;3.05;;
31782;SDS011;18351;47.560;9.708;2022-07-10T01:47:43;4.80;;;3.58;;
31782;SDS011;18351;47.560;9.708;2022-07-10T01:50:09;4.40;;;3.38;;
31782;SDS011;18351;47.560;9.708;2022-07-10T01:52:35;5.35;;;3.22;;
31782;SDS011;18351;47.560;9.708;2022-07-10T01:55:00;4.63;;;3.40;;
31782;SDS011;18351;47.560;9.708;2022-07-10T01:57:26;5.57;;;4.25;;
31782;SDS011;18351;47.560;9.708;2022-07-10T01:59:52;4.82;;;3.58;;
31782;SDS011;18351;47.560;9.708;2022-07-10T02:02:17;5.13;;;3.22;;
31782;SDS011;18351;47.560;9.708;2022-07-10T02:04:43;12.55;;;3.65;;
31782;SDS011;18351;47.560;9.708;2022-07-10T02:07:10;5.70;;;3.90;;
31782;SDS011;18351;47.560;9.708;2022-07-10T02:09:38;4.40;;;3.80;;
31782;SDS011;18351;47.560;9.708;2022-07-10T02:12:04;4.15;;;3.30;;
31782;SDS011;18351;47.560;9.708;2022-07-10T02:14:31;3.88;;;3.30;;
31782;SDS011;18351;47.560;9.708;2022-07-10T02:16:56;7.47;;;3.50;;
31782;SDS011;18351;47.560;9.708;2022-07-10T02:19:22;4.18;;;3.47;;
31782;SDS011;18351;47.560;9.708;2022-07-10T02:21:48;7.53;;;3.83;;
31782;SDS011;18351;47.560;9.708;2022-07-10T02:24:14;8.55;;;3.35;;
31782;SDS011;18351;47.560;9.708;2022-07-10T02:26:39;3.97;;;3.17;;
31782;SDS011;18351;47.560;9.708;2022-07-10T02:29:05;4.75;;;3.65;;
31782;SDS011;18351;47.560;9.708;2022-07-10T02:31:30;7.03;;;3.45;;
31782;SDS011;18351;47.560;9.708;2022-07-10T02:33:59;5.28;;;4.18;;
31782;SDS011;18351;47.560;9.708;2022-07-10T02:36:27;4.78;;;3.35;;
31782;SDS011;18351;47.560;9.708;2022-07-10T02:38:53;5.18;;;3.72;;
31782;SDS011;18351;47.560;9.708;2022-07-10T02:41:19;6.78;;;3.58;;
31782;SDS011;18351;47.560;9.708;2022-07-10T02:43:44;8.55;;;3.92;;
31782;SDS011;18351;47.560;9.708;2022-07-10T02:46:10;6.72;;;3.88;;
31782;SDS011;18351;47.560;9.708;2022-07-10T02:48:35;4.10;;;3.70;;
31782;SDS011;18351;47.560;9.708;2022-07-10T02:51:01;6.65;;;3.92;;
31782;SDS011;18351;47.560;9.708;2022-07-10T02:53:26;4.95;;;3.70;;
31782;SDS011;18351;47.560;9.708;2022-07-10T02:55:52;7.10;;;4.10;;
31782;SDS011;18351;47.560;9.708;2022-07-10T02:58:18;5.30;;;4.10;;
31782;SDS011;18351;47.560;9.708;2022-07-10T03:00:44;4.68;;;3.72;;
31782;SDS011;18351;47.560;9.708;2022-07-10T03:03:10;6.80;;;4.68;;
31782;SDS011;18351;47.560;9.708;2022-07-10T03:05:36;4.07;;;3.67;;
31782;SDS011;18351;47.560;9.708;2022-07-10T03:08:01;10.13;;;4.65;;
31782;SDS011;18351;47.560;9.708;2022-07-10T03:10:27;7.03;;;4.57;;
31782;SDS011;18351;47.560;9.708;2022-07-10T03:12:52;6.13;;;4.07;;
31782;SDS011;18351;47.560;9.708;2022-07-10T03:15:18;5.90;;;3.95;;
31782;SDS011;18351;47.560;9.708;2022-07-10T03:17:43;9.52;;;4.47;;
31782;SDS011;18351;47.560;9.708;2022-07-10T03:20:09;7.57;;;4.28;;
31782;SDS011;18351;47.560;9.708;2022-07-10T03:22:36;4.55;;;4.07;;
31782;SDS011;18351;47.560;9.708;2022-07-10T03:25:02;4.90;;;3.75;;
31782;SDS011;18351;47.560;9.708;2022-07-10T03:27:28;7.13;;;4.40;;
31782;SDS011;18351;47.560;9.708;2022-07-10T03:29:54;4.88;;;4.20;;
31782;SDS011;18351;47.560;9.708;2022-07-10T03:32:20;6.00;;;3.88;;
31782;SDS011;18351;47.560;9.708;2022-07-10T03:34:45;6.15;;;3.88;;
31782;SDS011;18351;47.560;9.708;2022-07-10T03:37:11;5.93;;;4.30;;
31782;SDS011;18351;47.560;9.708;2022-07-10T03:39:36;6.50;;;4.70;;
31782;SDS011;18351;47.560;9.708;2022-07-10T03:42:02;6.82;;;3.80;;
31782;SDS011;18351;47.560;9.708;2022-07-10T03:44:28;3.83;;;3.47;;
31782;SDS011;18351;47.560;9.708;2022-07-10T03:46:53;5.10;;;3.70;;
31782;SDS011;18351;47.560;9.708;2022-07-10T03:49:19;12.50;;;4.50;;
31782;SDS011;18351;47.560;9.708;2022-07-10T03:51:44;8.25;;;3.85;;
31782;SDS011;18351;47.560;9.708;2022-07-10T03:54:10;6.05;;;4.07;;
31782;SDS011;18351;47.560;9.708;2022-07-10T03:56:35;6.88;;;3.90;;
31782;SDS011;18351;47.560;9.708;2022-07-10T04:01:45;7.28;;;4.65;;
31782;SDS011;18351;47.560;9.708;2022-07-10T04:04:10;7.93;;;5.20;;
31782;SDS011;18351;47.560;9.708;2022-07-10T04:06:36;5.53;;;4.88;;
31782;SDS011;18351;47.560;9.708;2022-07-10T04:09:03;5.90;;;4.60;;
31782;SDS011;18351;47.560;9.708;2022-07-10T04:11:30;8.85;;;4.75;;
31782;SDS011;18351;47.560;9.708;2022-07-10T04:13:55;8.55;;;4.88;;
31782;SDS011;18351;47.560;9.708;2022-07-10T04:16:21;6.20;;;4.47;;
31782;SDS011;18351;47.560;9.708;2022-07-10T04:18:47;6.57;;;5.15;;
31782;SDS011;18351;47.560;9.708;2022-07-10T04:21:13;7.65;;;5.03;;
31782;SDS011;18351;47.560;9.708;2022-07-10T04:23:39;5.63;;;4.75;;
31782;SDS011;18351;47.560;9.708;2022-07-10T04:26:04;7.95;;;4.70;;
31782;SDS011;18351;47.560;9.708;2022-07-10T04:28:30;6.78;;;4.85;;
31782;SDS011;18351;47.560;9.708;2022-07-10T04:30:56;6.50;;;4.53;;
31782;SDS011;18351;47.560;9.708;2022-07-10T04:33:21;6.57;;;4.65;;
31782;SDS011;18351;47.560;9.708;2022-07-10T04:35:47;5.43;;;4.80;;
31782;SDS011;18351;47.560;9.708;2022-07-10T04:38:12;7.68;;;5.22;;
31782;SDS011;18351;47.560;9.708;2022-07-10T04:40:38;8.65;;;4.55;;
31782;SDS011;18351;47.560;9.708;2022-07-10T04:43:05;7.22;;;4.97;;
31782;SDS011;18351;47.560;9.708;2022-07-10T04:45:30;6.53;;;4.88;;
31782;SDS011;18351;47.560;9.708;2022-07-10T04:47:56;9.02;;;5.38;;
31782;SDS011;18351;47.560;9.708;2022-07-10T04:50:21;6.57;;;5.28;;
31782;SDS011;18351;47.560;9.708;2022-07-10T04:52:47;8.68;;;6.07;;
31782;SDS011;18351;47.560;9.708;2022-07-10T04:55:12;6.93;;;5.93;;
31782;SDS011;18351;47.560;9.708;2022-07-10T04:57:38;10.45;;;5.13;;
31782;SDS011;18351;47.560;9.708;2022-07-10T05:00:04;7.90;;;4.88;;
31782;SDS011;18351;47.560;9.708;2022-07-10T05:02:30;7.30;;;5.07;;
31782;SDS011;18351;47.560;9.708;2022-07-10T05:04:56;5.80;;;4.97;;
31782;SDS011;18351;47.560;9.708;2022-07-10T05:07:21;6.55;;;5.35;;
31782;SDS011;18351;47.560;9.708;2022-07-10T05:09:47;8.30;;;5.30;;
31782;SDS011;18351;47.560;9.708;2022-07-10T05:12:12;5.63;;;4.75;;
31782;SDS011;18351;47.560;9.708;2022-07-10T05:14:38;6.60;;;4.60;;
31782;SDS011;18351;47.560;9.708;2022-07-10T05:17:03;5.53;;;4.63;;
31782;SDS011;18351;47.560;9.708;2022-07-10T05:19:29;7.15;;;5.22;;
31782;SDS011;18351;47.560;9.708;2022-07-10T05:21:54;7.43;;;4.68;;
31782;SDS011;18351;47.560;9.708;2022-07-10T05:24:20;6.13;;;5.05;;
31782;SDS011;18351;47.560;9.708;2022-07-10T05:26:46;5.88;;;4.65;;
31782;SDS011;18351;47.560;9.708;2022-07-10T05:29:12;6.10;;;5.00;;
31782;SDS011;18351;47.560;9.708;2022-07-10T05:31:38;7.60;;;5.30;;
31782;SDS011;18351;47.560;9.708;2022-07-10T05:34:03;5.45;;;4.93;;
31782;SDS011;18351;47.560;9.708;2022-07-10T05:36:29;5.20;;;4.70;;
31782;SDS011;18351;47.560;9.708;2022-07-10T05:38:54;5.82;;;4.80;;
31782;SDS011;18351;47.560;9.708;2022-07-10T05:41:20;7.03;;;5.18;;
31782;SDS011;18351;47.560;9.708;2022-07-10T05:43:45;6.43;;;4.75;;
31782;SDS011;18351;47.560;9.708;2022-07-10T05:46:11;6.22;;;4.95;;
31782;SDS011;18351;47.560;9.708;2022-07-10T05:48:36;8.30;;;5.72;;
31782;SDS011;18351;47.560;9.708;2022-07-10T05:51:03;7.35;;;4.40;;
31782;SDS011;18351;47.560;9.708;2022-07-10T05:53:29;6.38;;;5.18;;
31782;SDS011;18351;47.560;9.708;2022-07-10T05:55:54;5.72;;;5.10;;
31782;SDS011;18351;47.560;9.708;2022-07-10T05:58:24;5.25;;;4.75;;
31782;SDS011;18351;47.560;9.708;2022-07-10T06:00:49;7.35;;;5.15;;
31782;SDS011;18351;47.560;9.708;2022-07-10T06:03:15;6.22;;;4.78;;
31782;SDS011;18351;47.560;9.708;2022-07-10T06:05:41;7.78;;;5.10;;
31782;SDS011;18351;47.560;9.708;2022-07-10T06:08:07;7.75;;;5.10;;
31782;SDS011;18351;47.560;9.708;2022-07-10T06:10:33;6.30;;;4.63;;
31782;SDS011;18351;47.560;9.708;2022-07-10T06:12:58;5.82;;;4.60;;
31782;SDS011;18351;47.560;9.708;2022-07-10T06:15:24;6.45;;;5.40;;
31782;SDS011;18351;47.560;9.708;2022-07-10T06:17:49;5.07;;;4.57;;
31782;SDS011;18351;47.560;9.708;2022-07-10T06:20:15;7.05;;;4.07;;
31782;SDS011;18351;47.560;9.708;2022-07-10T06:22:40;5.40;;;4.90;;
31782;SDS011;18351;47.560;9.708;2022-07-10T06:25:06;4.68;;;4.25;;
31782;SDS011;18351;47.560;9.708;2022-07-10T06:27:33;6.65;;;4.65;;
31782;SDS011;18351;47.560;9.708;2022-07-10T06:29:59;8.30;;;6.05;;
31782;SDS011;18351;47.560;9.708;2022-07-10T06:32:25;4.50;;;4.10;;
31782;SDS011;18351;47.560;9.708;2022-07-10T06:34:52;5.68;;;4.57;;
31782;SDS011;18351;47.560;9.708;2022-07-10T06:37:18;7.43;;;5.85;;
31782;SDS011;18351;47.560;9.708;2022-07-10T06:39:45;6.53;;;5.00;;
31782;SDS011;18351;47.560;9.708;2022-07-10T06:42:12;7.38;;;4.63;;
31782;SDS011;18351;47.560;9.708;2022-07-10T06:44:37;5.30;;;4.80;;
31782;SDS011;18351;47.560;9.708;2022-07-10T06:47:03;4.25;;;3.85;;
31782;SDS011;18351;47.560;9.708;2022-07-10T06:49:47;7.45;;;4.15;;
31782;SDS011;18351;47.560;9.708;2022-07-10T06:52:14;6.57;;;5.25;;
31782;SDS011;18351;47.560;9.708;2022-07-10T06:54:40;7.03;;;4.75;;
31782;SDS011;18351;47.560;9.708;2022-07-10T06:57:06;5.63;;;4.82;;
31782;SDS011;18351;47.560;9.708;2022-07-10T06:59:32;5.32;;;4.68;;
31782;SDS011;18351;47.560;9.708;2022-07-10T07:01:58;7.28;;;4.63;;
31782;SDS011;18351;47.560;9.708;2022-07-10T07:04:24;7.60;;;6.78;;
31782;SDS011;18351;47.560;9.708;2022-07-10T07:06:50;6.72;;;5.25;;
31782;SDS011;18351;47.560;9.708;2022-07-10T07:09:15;5.65;;;5.05;;
31782;SDS011;18351;47.560;9.708;2022-07-10T07:11:41;6.35;;;5.40;;
31782;SDS011;18351;47.560;9.708;2022-07-10T07:14:06;8.15;;;5.10;;
31782;SDS011;18351;47.560;9.708;2022-07-10T07:16:32;5.38;;;4.82;;
31782;SDS011;18351;47.560;9.708;2022-07-10T07:19:08;7.68;;;5.90;;
31782;SDS011;18351;47.560;9.708;2022-07-10T07:21:36;8.20;;;5.70;;
31782;SDS011;18351;47.560;9.708;2022-07-10T07:24:20;8.30;;;5.65;;
31782;SDS011;18351;47.560;9.708;2022-07-10T07:26:46;9.23;;;6.32;;
31782;SDS011;18351;47.560;9.708;2022-07-10T07:29:15;6.45;;;5.57;;
31782;SDS011;18351;47.560;9.708;2022-07-10T07:31:41;7.15;;;6.03;;
31782;SDS011;18351;47.560;9.708;2022-07-10T07:34:07;7.70;;;5.70;;
31782;SDS011;18351;47.560;9.708;2022-07-10T07:36:33;7.60;;;5.82;;
31782;SDS011;18351;47.560;9.708;2022-07-10T07:38:59;6.55;;;5.85;;
31782;SDS011;18351;47.560;9.708;2022-07-10T07:41:25;6.53;;;5.90;;
31782;SDS011;18351;47.560;9.708;2022-07-10T07:43:50;8.10;;;6.20;;
31782;SDS011;18351;47.560;9.708;2022-07-10T07:46:17;6.95;;;6.28;;
31782;SDS011;18351;47.560;9.708;2022-07-10T07:48:43;7.20;;;6.20;;
31782;SDS011;18351;47.560;9.708;2022-07-10T07:51:09;7.68;;;6.05;;
31782;SDS011;18351;47.560;9.708;2022-07-10T07:53:34;7.05;;;5.65;;
31782;SDS011;18351;47.560;9.708;2022-07-10T07:56:00;7.20;;;6.07;;
31782;SDS011;18351;47.560;9.708;2022-07-10T07:58:25;6.93;;;5.60;;
31782;SDS011;18351;47.560;9.708;2022-07-10T08:00:51;6.88;;;5.68;;
31782;SDS011;18351;47.560;9.708;2022-07-10T08:03:17;6.60;;;5.43;;
31782;SDS011;18351;47.560;9.708;2022-07-10T08:05:42;7.03;;;5.35;;
31782;SDS011;18351;47.560;9.708;2022-07-10T08:08:08;6.40;;;5.15;;
31782;SDS011;18351;47.560;9.708;2022-07-10T08:10:35;7.90;;;4.72;;
31782;SDS011;18351;47.560;9.708;2022-07-10T08:13:02;7.03;;;5.20;;
31782;SDS011;18351;47.560;9.708;2022-07-10T08:15:28;6.10;;;5.03;;
31782;SDS011;18351;47.560;9.708;2022-07-10T08:17:56;10.55;;;5.13;;
31782;SDS011;18351;47.560;9.708;2022-07-10T08:20:23;5.30;;;4.60;;
31782;SDS011;18351;47.560;9.708;2022-07-10T08:22:50;6.85;;;4.53;;
31782;SDS011;18351;47.560;9.708;2022-07-10T08:25:17;4.68;;;3.97;;
31782;SDS011;18351;47.560;9.708;2022-07-10T08:27:44;3.97;;;3.58;;
31782;SDS011;18351;47.560;9.708;2022-07-10T08:30:10;4.55;;;3.70;;
31782;SDS011;18351;47.560;9.708;2022-07-10T08:32:36;4.85;;;3.83;;
31782;SDS011;18351;47.560;9.708;2022-07-10T08:35:03;4.60;;;3.95;;
31782;SDS011;18351;47.560;9.708;2022-07-10T08:37:29;6.30;;;4.18;;
31782;SDS011;18351;47.560;9.708;2022-07-10T08:40:01;5.78;;;4.72;;
31782;SDS011;18351;47.560;9.708;2022-07-10T08:42:26;5.03;;;4.38;;
31782;SDS011;18351;47.560;9.708;2022-07-10T08:44:52;4.30;;;3.60;;
31782;SDS011;18351;47.560;9.708;2022-07-10T08:47:20;6.30;;;4.78;;
31782;SDS011;18351;47.560;9.708;2022-07-10T08:49:47;9.02;;;3.50;;
31782;SDS011;18351;47.560;9.708;2022-07-10T08:52:13;4.90;;;4.20;;
31782;SDS011;18351;47.560;9.708;2022-07-10T08:54:48;7.25;;;4.15;;
31782;SDS011;18351;47.560;9.708;2022-07-10T08:57:13;4.57;;;3.63;;
31782;SDS011;18351;47.560;9.708;2022-07-10T08:59:42;5.25;;;3.45;;
31782;SDS011;18351;47.560;9.708;2022-07-10T09:02:07;4.38;;;3.70;;
31782;SDS011;18351;47.560;9.708;2022-07-10T09:04:33;4.72;;;3.55;;
31782;SDS011;18351;47.560;9.708;2022-07-10T09:06:59;6.00;;;4.10;;
31782;SDS011;18351;47.560;9.708;2022-07-10T09:09:24;5.65;;;4.15;;
31782;SDS011;18351;47.560;9.708;2022-07-10T09:11:54;4.22;;;3.70;;
31782;SDS011;18351;47.560;9.708;2022-07-10T09:14:23;5.95;;;4.00;;
31782;SDS011;18351;47.560;9.708;2022-07-10T09:16:52;5.00;;;4.40;;
31782;SDS011;18351;47.560;9.708;2022-07-10T09:21:48;6.00;;;4.05;;
31782;SDS011;18351;47.560;9.708;2022-07-10T09:24:15;5.40;;;4.40;;
31782;SDS011;18351;47.560;9.708;2022-07-10T09:26:57;4.97;;;4.20;;
31782;SDS011;18351;47.560;9.708;2022-07-10T09:29:28;11.27;;;4.05;;
31782;SDS011;18351;47.560;9.708;2022-07-10T09:31:56;5.55;;;3.78;;
31782;SDS011;18351;47.560;9.708;2022-07-10T09:34:38;4.68;;;4.28;;
31782;SDS011;18351;47.560;9.708;2022-07-10T09:37:21;4.07;;;3.55;;
31782;SDS011;18351;47.560;9.708;2022-07-10T09:39:58;8.60;;;4.07;;
31782;SDS011;18351;47.560;9.708;2022-07-10T09:42:45;5.45;;;4.50;;
31782;SDS011;18351;47.560;9.708;2022-07-10T09:47:55;4.60;;;4.13;;
31782;SDS011;18351;47.560;9.708;2022-07-10T09:50:25;6.10;;;4.72;;
31782;SDS011;18351;47.560;9.708;2022-07-10T09:52:59;3.92;;;3.53;;
31782;SDS011;18351;47.560;9.708;2022-07-10T09:55:27;3.97;;;3.25;;
31782;SDS011;18351;47.560;9.708;2022-07-10T10:00:34;3.90;;;3.45;;
31782;SDS011;18351;47.560;9.708;2022-07-10T10:03:05;4.32;;;3.70;;
31782;SDS011;18351;47.560;9.708;2022-07-10T10:08:00;6.65;;;3.80;;
31782;SDS011;18351;47.560;9.708;2022-07-10T10:10:30;6.88;;;4.38;;
31782;SDS011;18351;47.560;9.708;2022-07-10T10:12:58;8.57;;;4.22;;
31782;SDS011;18351;47.560;9.708;2022-07-10T10:15:25;5.20;;;4.70;;
31782;SDS011;18351;47.560;9.708;2022-07-10T10:17:51;5.13;;;4.63;;
31782;SDS011;18351;47.560;9.708;2022-07-10T10:20:18;6.88;;;4.28;;
31782;SDS011;18351;47.560;9.708;2022-07-10T10:23:05;16.58;;;4.25;;
31782;SDS011;18351;47.560;9.708;2022-07-10T10:25:33;3.70;;;3.40;;
31782;SDS011;18351;47.560;9.708;2022-07-10T10:28:00;3.67;;;3.38;;
31782;SDS011;18351;47.560;9.708;2022-07-10T10:30:29;6.13;;;4.82;;
31782;SDS011;18351;47.560;9.708;2022-07-10T10:32:55;9.82;;;4.07;;
31782;SDS011;18351;47.560;9.708;2022-07-10T10:38:14;4.38;;;3.40;;
31782;SDS011;18351;47.560;9.708;2022-07-10T10:40:43;6.07;;;4.13;;
31782;SDS011;18351;47.560;9.708;2022-07-10T10:45:48;5.85;;;4.40;;
31782;SDS011;18351;47.560;9.708;2022-07-10T10:48:15;5.20;;;4.05;;
31782;SDS011;18351;47.560;9.708;2022-07-10T10:50:45;4.10;;;3.55;;
31782;SDS011;18351;47.560;9.708;2022-07-10T10:53:22;3.67;;;3.13;;
31782;SDS011;18351;47.560;9.708;2022-07-10T10:58:45;4.32;;;3.35;;
31782;SDS011;18351;47.560;9.708;2022-07-10T11:06:45;7.05;;;3.15;;
31782;SDS011;18351;47.560;9.708;2022-07-10T11:09:28;4.53;;;3.22;;
31782;SDS011;18351;47.560;9.708;2022-07-10T11:11:58;4.35;;;3.40;;
31782;SDS011;18351;47.560;9.708;2022-07-10T11:14:30;3.22;;;2.92;;
31782;SDS011;18351;47.560;9.708;2022-07-10T11:16:57;4.20;;;3.28;;
31782;SDS011;18351;47.560;9.708;2022-07-10T11:19:26;3.83;;;3.25;;
31782;SDS011;18351;47.560;9.708;2022-07-10T11:22:07;5.45;;;3.13;;
31782;SDS011;18351;47.560;9.708;2022-07-10T11:27:51;4.05;;;3.17;;
31782;SDS011;18351;47.560;9.708;2022-07-10T11:33:15;4.68;;;3.67;;
31782;SDS011;18351;47.560;9.708;2022-07-10T11:35:45;11.20;;;4.07;;
31782;SDS011;18351;47.560;9.708;2022-07-10T11:38:12;3.78;;;3.15;;
31782;SDS011;18351;47.560;9.708;2022-07-10T11:40:43;3.45;;;2.70;;
31782;SDS011;18351;47.560;9.708;2022-07-10T11:43:08;4.70;;;3.15;;
31782;SDS011;18351;47.560;9.708;2022-07-10T11:45:38;4.13;;;3.15;;
31782;SDS011;18351;47.560;9.708;2022-07-10T11:48:04;4.10;;;3.42;;
31782;SDS011;18351;47.560;9.708;2022-07-10T11:50:35;3.97;;;2.88;;
31782;SDS011;18351;47.560;9.708;2022-07-10T11:53:02;5.75;;;3.35;;
31782;SDS011;18351;47.560;9.708;2022-07-10T11:55:28;3.00;;;2.70;;
31782;SDS011;18351;47.560;9.708;2022-07-10T11:57:56;3.60;;;2.67;;
31782;SDS011;18351;47.560;9.708;2022-07-10T12:00:26;3.85;;;2.83;;
31782;SDS011;18351;47.560;9.708;2022-07-10T12:02:54;3.13;;;2.83;;
31782;SDS011;18351;47.560;9.708;2022-07-10T12:05:31;3.50;;;3.00;;
31782;SDS011;18351;47.560;9.708;2022-07-10T12:07:57;6.72;;;3.03;;
31782;SDS011;18351;47.560;9.708;2022-07-10T12:10:25;2.90;;;2.60;;
31782;SDS011;18351;47.560;9.708;2022-07-10T12:12:52;2.92;;;2.65;;
31782;SDS011;18351;47.560;9.708;2022-07-10T12:15:30;4.68;;;3.25;;
31782;SDS011;18351;47.560;9.708;2022-07-10T12:17:59;3.15;;;2.60;;
31782;SDS011;18351;47.560;9.708;2022-07-10T12:20:25;3.10;;;2.47;;
31782;SDS011;18351;47.560;9.708;2022-07-10T12:22:51;4.25;;;3.05;;
31782;SDS011;18351;47.560;9.708;2022-07-10T12:25:19;3.08;;;2.38;;
31782;SDS011;18351;47.560;9.708;2022-07-10T12:27:45;3.78;;;2.53;;
31782;SDS011;18351;47.560;9.708;2022-07-10T12:30:11;2.80;;;2.30;;
31782;SDS011;18351;47.560;9.708;2022-07-10T12:32:36;4.93;;;2.40;;
31782;SDS011;18351;47.560;9.708;2022-07-10T12:35:02;2.83;;;2.28;;
31782;SDS011;18351;47.560;9.708;2022-07-10T12:37:28;2.60;;;2.35;;
31782;SDS011;18351;47.560;9.708;2022-07-10T12:39:53;3.78;;;2.30;;
31782;SDS011;18351;47.560;9.708;2022-07-10T12:42:29;3.10;;;2.42;;
31782;SDS011;18351;47.560;9.708;2022-07-10T12:45:13;5.13;;;2.83;;
31782;SDS011;18351;47.560;9.708;2022-07-10T12:47:44;2.60;;;2.40;;
31782;SDS011;18351;47.560;9.708;2022-07-10T12:50:11;3.45;;;2.53;;
31782;SDS011;18351;47.560;9.708;2022-07-10T12:52:38;2.50;;;2.30;;
31782;SDS011;18351;47.560;9.708;2022-07-10T12:55:05;2.35;;;2.13;;
31782;SDS011;18351;47.560;9.708;2022-07-10T13:00:23;3.42;;;2.40;;
31782;SDS011;18351;47.560;9.708;2022-07-10T13:05:28;4.50;;;2.50;;
31782;SDS011;18351;47.560;9.708;2022-07-10T13:08:04;2.40;;;2.20;;
31782;SDS011;18351;47.560;9.708;2022-07-10T13:10:30;3.70;;;2.53;;
31782;SDS011;18351;47.560;9.708;2022-07-10T13:12:56;3.72;;;2.63;;
31782;SDS011;18351;47.560;9.708;2022-07-10T13:15:21;3.55;;;2.50;;
31782;SDS011;18351;47.560;9.708;2022-07-10T13:17:48;3.05;;;2.58;;
31782;SDS011;18351;47.560;9.708;2022-07-10T13:20:13;2.38;;;2.17;;
31782;SDS011;18351;47.560;9.708;2022-07-10T13:22:40;2.90;;;2.60;;
31782;SDS011;18351;47.560;9.708;2022-07-10T13:25:05;3.58;;;2.35;;
31782;SDS011;18351;47.560;9.708;2022-07-10T13:27:31;5.38;;;2.20;;
31782;SDS011;18351;47.560;9.708;2022-07-10T13:29:57;3.17;;;2.10;;
31782;SDS011;18351;47.560;9.708;2022-07-10T13:32:22;2.45;;;2.25;;
31782;SDS011;18351;47.560;9.708;2022-07-10T13:34:48;3.65;;;2.40;;
31782;SDS011;18351;47.560;9.708;2022-07-10T13:37:14;5.00;;;2.40;;
31782;SDS011;18351;47.560;9.708;2022-07-10T13:39:40;2.97;;;2.10;;
31782;SDS011;18351;47.560;9.708;2022-07-10T13:42:05;3.08;;;2.40;;
31782;SDS011;18351;47.560;9.708;2022-07-10T13:44:31;2.80;;;2.50;;
31782;SDS011;18351;47.560;9.708;2022-07-10T13:46:56;2.67;;;2.30;;
31782;SDS011;18351;47.560;9.708;2022-07-10T13:49:22;3.92;;;2.63;;
31782;SDS011;18351;47.560;9.708;2022-07-10T13:51:48;2.65;;;2.42;;
31782;SDS011;18351;47.560;9.708;2022-07-10T13:54:13;2.70;;;2.50;;
31782;SDS011;18351;47.560;9.708;2022-07-10T13:56:39;3.90;;;2.30;;
31782;SDS011;18351;47.560;9.708;2022-07-10T13:59:05;2.53;;;2.33;;
31782;SDS011;18351;47.560;9.708;2022-07-10T14:01:31;3.25;;;2.03;;
31782;SDS011;18351;47.560;9.708;2022-07-10T14:03:57;2.80;;;2.45;;
31782;SDS011;18351;47.560;9.708;2022-07-10T14:06:22;2.90;;;2.28;;
31782;SDS011;18351;47.560;9.708;2022-07-10T14:08:48;5.20;;;2.50;;
31782;SDS011;18351;47.560;9.708;2022-07-10T14:11:13;4.22;;;2.60;;
31782;SDS011;18351;47.560;9.708;2022-07-10T14:13:39;2.50;;;2.30;;
31782;SDS011;18351;47.560;9.708;2022-07-10T14:16:04;3.33;;;2.63;;
31782;SDS011;18351;47.560;9.708;2022-07-10T14:18:30;2.45;;;2.25;;
31782;SDS011;18351;47.560;9.708;2022-07-10T14:21:06;3.38;;;2.30;;
31782;SDS011;18351;47.560;9.708;2022-07-10T14:23:33;2.67;;;2.40;;
31782;SDS011;18351;47.560;9.708;2022-07-10T14:26:00;4.20;;;2.33;;
31782;SDS011;18351;47.560;9.708;2022-07-10T14:28:26;3.90;;;2.33;;
31782;SDS011;18351;47.560;9.708;2022-07-10T14:30:52;2.40;;;2.20;;
31782;SDS011;18351;47.560;9.708;2022-07-10T14:33:19;2.08;;;1.98;;
31782;SDS011;18351;47.560;9.708;2022-07-10T14:35:45;2.30;;;2.10;;
31782;SDS011;18351;47.560;9.708;2022-07-10T14:38:10;2.72;;;2.30;;
31782;SDS011;18351;47.560;9.708;2022-07-10T14:40:36;3.10;;;2.25;;
31782;SDS011;18351;47.560;9.708;2022-07-10T14:43:01;2.65;;;2.45;;
31782;SDS011;18351;47.560;9.708;2022-07-10T14:45:27;2.47;;;2.20;;
31782;SDS011;18351;47.560;9.708;2022-07-10T14:47:53;2.60;;;2.40;;
31782;SDS011;18351;47.560;9.708;2022-07-10T14:50:20;4.13;;;2.00;;
31782;SDS011;18351;47.560;9.708;2022-07-10T14:52:45;3.00;;;2.47;;
31782;SDS011;18351;47.560;9.708;2022-07-10T14:55:11;2.42;;;2.05;;
31782;SDS011;18351;47.560;9.708;2022-07-10T14:57:37;2.45;;;2.25;;
31782;SDS011;18351;47.560;9.708;2022-07-10T15:00:03;2.35;;;2.15;;
31782;SDS011;18351;47.560;9.708;2022-07-10T15:02:29;3.95;;;2.90;;
31782;SDS011;18351;47.560;9.708;2022-07-10T15:04:55;3.00;;;2.70;;
31782;SDS011;18351;47.560;9.708;2022-07-10T15:07:20;6.28;;;2.80;;
31782;SDS011;18351;47.560;9.708;2022-07-10T15:09:46;3.05;;;2.40;;
31782;SDS011;18351;47.560;9.708;2022-07-10T15:12:12;3.10;;;2.45;;
31782;SDS011;18351;47.560;9.708;2022-07-10T15:14:38;2.50;;;2.30;;
31782;SDS011;18351;47.560;9.708;2022-07-10T15:17:03;2.42;;;2.17;;
31782;SDS011;18351;47.560;9.708;2022-07-10T15:19:29;3.95;;;2.28;;
31782;SDS011;18351;47.560;9.708;2022-07-10T15:21:55;4.43;;;2.10;;
31782;SDS011;18351;47.560;9.708;2022-07-10T15:24:21;7.32;;;2.45;;